createdAt,value
2018-05-10T00:00:12.799Z,13.70
2018-05-10T00:02:40.834Z,13.80
2018-05-10T00:05:09.650Z,13.80
2018-05-10T00:07:37.688Z,13.80
2018-05-10T00:10:05.760Z,13.80
2018-05-10T00:12:33.799Z,13.90
2018-05-10T00:15:01.859Z,13.90
2018-05-10T00:17:30.676Z,13.80
2018-05-10T00:19:58.707Z,13.80
2018-05-10T00:22:26.769Z,13.80
2018-05-10T00:24:54.803Z,13.80
2018-05-10T00:27:22.855Z,13.80
2018-05-10T00:29:50.881Z,13.60
2018-05-10T00:32:19.704Z,13.50
2018-05-10T00:34:47.691Z,13.40
2018-05-10T00:37:15.711Z,13.30
2018-05-10T00:39:43.698Z,13.30
2018-05-10T00:42:11.694Z,13.20
2018-05-10T00:44:40.466Z,13.20
2018-05-10T00:47:08.474Z,13.20
2018-05-10T00:49:37.245Z,13.20
2018-05-10T00:52:05.252Z,13.10
2018-05-10T00:54:45.056Z,13.10
2018-05-10T00:57:13.058Z,13.30
2018-05-10T00:59:41.082Z,13.30
2018-05-10T01:02:09.083Z,13.20
2018-05-10T01:04:37.855Z,13.00
2018-05-10T01:07:05.865Z,12.90
2018-05-10T01:09:34.611Z,13.00
2018-05-10T01:12:02.627Z,12.90
2018-05-10T01:14:30.626Z,13.10
2018-05-10T01:16:59.386Z,13.00
2018-05-10T01:19:27.391Z,13.00
2018-05-10T01:21:55.390Z,12.90
2018-05-10T01:24:24.149Z,12.80
2018-05-10T01:26:52.159Z,12.70
2018-05-10T01:29:20.158Z,12.70
2018-05-10T01:31:48.914Z,12.60
2018-05-10T01:34:16.929Z,12.50
2018-05-10T01:36:44.929Z,12.60
2018-05-10T01:39:13.683Z,12.50
2018-05-10T01:41:42.062Z,12.50
2018-05-10T01:44:10.067Z,12.50
2018-05-10T01:46:39.565Z,12.20
2018-05-10T01:49:07.563Z,12.20
2018-05-10T01:51:35.565Z,12.40
2018-05-10T01:54:03.582Z,12.40
2018-05-10T01:56:31.674Z,12.30
2018-05-10T01:58:59.678Z,12.10
2018-05-10T02:01:27.665Z,12.10
2018-05-10T02:03:55.674Z,12.20
2018-05-10T02:06:23.684Z,12.30
2018-05-10T02:08:51.685Z,12.10
2018-05-10T02:11:19.683Z,12.10
2018-05-10T02:13:47.691Z,12.20
2018-05-10T02:16:15.683Z,12.10
2018-05-10T02:18:43.690Z,11.90
2018-05-10T02:21:12.467Z,12.00
2018-05-10T02:23:40.447Z,12.00
2018-05-10T02:26:08.456Z,12.00
2018-05-10T02:28:37.227Z,11.90
2018-05-10T02:31:05.215Z,11.80
2018-05-10T02:33:33.222Z,11.80
2018-05-10T02:36:02.006Z,11.80
2018-05-10T02:38:30.771Z,11.80
2018-05-10T02:40:59.171Z,11.70
2018-05-10T02:43:27.179Z,11.80
2018-05-10T02:45:55.174Z,11.80
2018-05-10T02:48:23.948Z,11.60
2018-05-10T02:50:51.947Z,11.60
2018-05-10T02:53:19.939Z,11.60
2018-05-10T02:55:47.969Z,11.60
2018-05-10T02:58:15.954Z,11.50
2018-05-10T03:00:43.967Z,11.40
2018-05-10T03:03:11.972Z,11.40
2018-05-10T03:05:39.978Z,11.30
2018-05-10T03:08:07.976Z,11.40
2018-05-10T03:10:35.990Z,11.20
2018-05-10T03:13:03.994Z,11.20
2018-05-10T03:15:31.991Z,11.30
2018-05-10T03:18:00.771Z,11.30
2018-05-10T03:20:28.761Z,11.20
2018-05-10T03:22:56.754Z,11.30
2018-05-10T03:25:25.598Z,11.20
2018-05-10T03:27:53.581Z,11.10
2018-05-10T03:30:21.576Z,11.10
2018-05-10T03:32:49.578Z,11.10
2018-05-10T03:35:17.582Z,11.10
2018-05-10T03:37:45.595Z,11.00
2018-05-10T03:40:13.607Z,10.90
2018-05-10T03:42:41.611Z,10.90
2018-05-10T03:45:09.611Z,11.00
2018-05-10T03:47:37.623Z,11.10
2018-05-10T03:50:05.624Z,11.20
2018-05-10T03:52:33.619Z,11.20
2018-05-10T03:55:01.632Z,11.20
2018-05-10T03:57:29.645Z,11.20
2018-05-10T03:59:59.375Z,11.30
2018-05-10T04:02:39.439Z,11.20
2018-05-10T04:05:19.194Z,11.30
2018-05-10T04:07:59.822Z,11.30
2018-05-10T04:10:39.778Z,11.20
2018-05-10T04:13:07.798Z,11.40
2018-05-10T04:15:35.852Z,11.40
2018-05-10T04:18:04.565Z,11.60
2018-05-10T04:20:32.576Z,11.50
2018-05-10T04:23:01.355Z,11.50
2018-05-10T04:25:29.342Z,11.50
2018-05-10T04:27:57.413Z,11.50
2018-05-10T04:30:26.141Z,11.70
2018-05-10T04:32:54.121Z,11.70
2018-05-10T04:35:22.892Z,11.70
2018-05-10T04:37:50.894Z,11.60
2018-05-10T04:40:18.891Z,11.80
2018-05-10T04:42:47.654Z,12.00
2018-05-10T04:45:15.662Z,11.90
2018-05-10T04:47:43.659Z,12.10
2018-05-10T04:50:12.435Z,12.40
2018-05-10T04:52:40.443Z,12.40
2018-05-10T04:55:09.211Z,12.70
2018-05-10T04:57:37.326Z,12.70
2018-05-10T05:00:06.111Z,13.00
2018-05-10T05:02:34.098Z,12.90
2018-05-10T05:05:02.137Z,13.10
2018-05-10T05:07:30.142Z,13.30
2018-05-10T05:09:58.225Z,13.50
2018-05-10T05:12:26.140Z,13.60
2018-05-10T05:14:54.919Z,13.70
2018-05-10T05:17:22.902Z,13.70
2018-05-10T05:19:51.213Z,13.80
2018-05-10T05:22:19.982Z,14.20
2018-05-10T05:24:47.982Z,14.20
2018-05-10T05:27:15.983Z,14.20
2018-05-10T05:29:44.763Z,14.30
2018-05-10T05:32:12.758Z,14.30
2018-05-10T05:34:41.530Z,14.50
2018-05-10T05:37:09.539Z,14.40
2018-05-10T05:39:38.499Z,14.70
2018-05-10T05:42:06.519Z,14.60
2018-05-10T05:44:34.538Z,14.70
2018-05-10T05:47:02.540Z,14.70
2018-05-10T05:49:30.560Z,14.80
2018-05-10T05:51:58.554Z,15.00
2018-05-10T05:54:26.546Z,15.10
2018-05-10T05:56:55.329Z,14.90
2018-05-10T05:59:23.318Z,14.90
2018-05-10T06:01:52.079Z,15.00
2018-05-10T06:04:20.091Z,15.00
2018-05-10T06:06:48.094Z,15.20
2018-05-10T06:09:16.854Z,15.40
2018-05-10T06:11:44.862Z,15.30
2018-05-10T06:14:12.862Z,15.50
2018-05-10T06:16:41.618Z,15.70
2018-05-10T06:19:09.630Z,15.60
2018-05-10T06:21:38.410Z,15.90
2018-05-10T06:24:06.408Z,15.90
2018-05-10T06:26:36.060Z,16.00
2018-05-10T06:29:05.044Z,16.10
2018-05-10T06:31:33.106Z,16.10
2018-05-10T06:34:01.177Z,16.10
2018-05-10T06:36:29.920Z,16.30
2018-05-10T06:38:57.911Z,16.20
2018-05-10T06:41:26.719Z,16.40
2018-05-10T06:43:56.478Z,16.50
2018-05-10T06:46:24.475Z,16.50
2018-05-10T06:48:52.474Z,16.70
2018-05-10T06:51:21.259Z,16.90
2018-05-10T06:53:49.250Z,16.90
2018-05-10T06:56:17.255Z,17.10
2018-05-10T06:58:46.030Z,17.30
2018-05-10T07:01:14.027Z,17.20
2018-05-10T07:03:43.559Z,17.30
2018-05-10T07:06:12.346Z,17.60
2018-05-10T07:08:40.342Z,17.50
2018-05-10T07:11:08.349Z,17.80
2018-05-10T07:13:36.365Z,18.20
2018-05-10T07:16:04.365Z,18.30
2018-05-10T07:18:32.367Z,18.60
2018-05-10T07:21:00.379Z,18.90
2018-05-10T07:23:28.395Z,19.20
2018-05-10T07:25:56.411Z,19.20
2018-05-10T07:28:24.431Z,19.10
2018-05-10T07:30:52.415Z,19.00
2018-05-10T07:33:20.428Z,18.90
2018-05-10T07:35:48.447Z,19.00
2018-05-10T07:38:16.447Z,18.90
2018-05-10T07:40:45.214Z,18.90
2018-05-10T07:43:13.222Z,18.90
2018-05-10T07:45:42.999Z,18.80
2018-05-10T07:48:11.010Z,18.80
2018-05-10T07:50:39.023Z,18.90
2018-05-10T07:53:07.883Z,19.00
2018-05-10T07:55:36.599Z,19.20
2018-05-10T07:58:04.615Z,19.20
2018-05-10T08:00:32.630Z,19.30
2018-05-10T08:03:00.677Z,19.50
2018-05-10T08:05:29.483Z,19.70
2018-05-10T08:07:57.506Z,19.60
2018-05-10T08:10:25.523Z,19.80
2018-05-10T08:12:53.551Z,19.80
2018-05-10T08:15:21.559Z,20.00
2018-05-10T08:17:49.584Z,20.20
2018-05-10T08:20:18.376Z,20.60
2018-05-10T08:22:46.372Z,20.60
2018-05-10T08:25:15.190Z,20.90
2018-05-10T08:27:47.001Z,20.80
2018-05-10T08:30:15.842Z,20.90
2018-05-10T08:32:43.804Z,20.90
2018-05-10T08:35:11.806Z,21.00
2018-05-10T08:37:40.675Z,21.30
2018-05-10T08:40:08.683Z,21.20
2018-05-10T08:42:36.699Z,21.50
2018-05-10T08:45:04.788Z,21.70
2018-05-10T08:47:32.739Z,22.00
2018-05-10T08:50:01.519Z,22.10
2018-05-10T08:52:29.535Z,22.10
2018-05-10T08:54:58.311Z,22.20
2018-05-10T08:57:26.307Z,22.10
2018-05-10T08:59:55.154Z,22.00
2018-05-10T09:02:23.882Z,22.20
2018-05-10T09:04:51.873Z,22.10
2018-05-10T09:07:19.919Z,22.50
2018-05-10T09:09:48.670Z,23.20
2018-05-10T09:12:17.438Z,23.30
2018-05-10T09:14:45.459Z,23.20
2018-05-10T09:17:13.482Z,23.40
2018-05-10T09:19:41.491Z,23.60
2018-05-10T09:22:09.784Z,23.60
2018-05-10T09:24:37.783Z,23.80
2018-05-10T09:27:07.283Z,23.70
2018-05-10T09:29:35.307Z,23.70
2018-05-10T09:32:04.078Z,23.60
2018-05-10T09:34:33.023Z,23.50
2018-05-10T09:37:01.041Z,23.80
2018-05-10T09:39:29.113Z,24.00
2018-05-10T09:41:57.061Z,24.20
2018-05-10T09:44:25.043Z,24.60
2018-05-10T09:46:53.816Z,24.60
2018-05-10T09:49:23.318Z,24.40
2018-05-10T09:51:51.343Z,24.40
2018-05-10T09:54:19.368Z,24.20
2018-05-10T09:56:47.359Z,24.00
2018-05-10T09:59:15.397Z,23.70
2018-05-10T10:01:44.162Z,24.30
2018-05-10T10:04:12.154Z,24.30
2018-05-10T10:06:40.179Z,24.50
2018-05-10T10:09:08.950Z,24.90
2018-05-10T10:11:36.991Z,24.90
2018-05-10T10:14:05.723Z,25.20
2018-05-10T10:16:33.734Z,25.20
2018-05-10T10:19:02.495Z,24.90
2018-05-10T10:21:30.506Z,24.90
2018-05-10T10:23:59.270Z,25.50
2018-05-10T10:26:27.323Z,25.40
2018-05-10T10:28:55.335Z,25.60
2018-05-10T10:31:23.805Z,25.70
2018-05-10T10:33:51.785Z,26.00
2018-05-10T10:36:19.799Z,26.30
2018-05-10T10:38:47.806Z,26.30
2018-05-10T10:41:15.799Z,26.30
2018-05-10T10:43:44.603Z,26.20
2018-05-10T10:46:13.379Z,26.10
2018-05-10T10:48:41.387Z,26.00
2018-05-10T10:51:10.173Z,27.10
2018-05-10T10:53:39.682Z,26.60
2018-05-10T10:56:07.688Z,26.60
2018-05-10T10:58:36.463Z,25.80
2018-05-10T11:01:04.479Z,25.80
2018-05-10T11:03:33.256Z,25.70
2018-05-10T11:06:01.273Z,25.60
2018-05-10T11:08:29.315Z,26.10
2018-05-10T11:10:57.284Z,26.60
2018-05-10T11:13:25.296Z,27.20
2018-05-10T11:15:53.309Z,27.90
2018-05-10T11:18:21.314Z,28.00
2018-05-10T11:20:49.393Z,27.70
2018-05-10T11:23:17.319Z,27.10
2018-05-10T11:25:45.322Z,26.60
2018-05-10T11:28:14.107Z,25.00
2018-05-10T11:30:42.195Z,24.90
2018-05-10T11:33:10.986Z,23.80
2018-05-10T11:35:38.978Z,23.80
2018-05-10T11:38:06.987Z,23.20
2018-05-10T11:40:35.082Z,22.60
2018-05-10T11:43:03.079Z,22.60
2018-05-10T11:45:31.100Z,22.30
2018-05-10T11:47:59.091Z,22.20
2018-05-10T11:50:27.098Z,22.20
2018-05-10T11:52:55.943Z,22.20
2018-05-10T11:55:23.935Z,22.40
2018-05-10T11:57:52.161Z,22.70
2018-05-10T12:00:20.947Z,22.90
2018-05-10T12:02:48.942Z,22.90
2018-05-10T12:05:17.760Z,22.80
2018-05-10T12:07:45.727Z,22.80
2018-05-10T12:10:14.537Z,23.00
2018-05-10T12:12:43.354Z,22.80
2018-05-10T12:15:11.371Z,22.70
2018-05-10T12:17:39.368Z,22.70
2018-05-10T12:20:07.383Z,22.60
2018-05-10T12:22:36.147Z,22.50
2018-05-10T12:25:04.170Z,22.50
2018-05-10T12:27:32.273Z,22.50
2018-05-10T12:30:00.194Z,22.40
2018-05-10T12:32:28.201Z,22.20
2018-05-10T12:34:56.963Z,20.70
2018-05-10T12:37:24.976Z,20.70
2018-05-10T12:39:52.987Z,20.10
2018-05-10T12:42:21.755Z,18.80
2018-05-10T12:44:49.794Z,18.70
2018-05-10T12:47:17.814Z,18.50
2018-05-10T12:49:45.917Z,18.30
2018-05-10T12:52:13.923Z,17.90
2018-05-10T12:54:41.938Z,17.60
2018-05-10T12:57:09.941Z,17.30
2018-05-10T12:59:37.938Z,16.90
2018-05-10T13:02:06.056Z,16.60
2018-05-10T13:04:34.824Z,16.00
2018-05-10T13:07:02.839Z,15.90
2018-05-10T13:09:31.594Z,15.10
2018-05-10T13:11:59.611Z,15.00
2018-05-10T13:14:28.381Z,14.40
2018-05-10T13:16:56.387Z,14.30
2018-05-10T13:19:24.427Z,14.40
2018-05-10T13:21:53.166Z,14.30
2018-05-10T13:24:21.178Z,14.20
2018-05-10T13:26:49.419Z,14.10
2018-05-10T13:29:17.415Z,14.10
2018-05-10T13:31:45.419Z,14.10
2018-05-10T13:34:14.206Z,14.10
2018-05-10T13:36:43.523Z,14.00
2018-05-10T13:39:11.532Z,14.00
2018-05-10T13:41:39.580Z,14.00
2018-05-10T13:44:07.568Z,13.90
2018-05-10T13:46:37.080Z,14.00
2018-05-10T13:49:05.098Z,13.90
2018-05-10T13:51:33.300Z,14.00
2018-05-10T13:54:01.356Z,14.00
2018-05-10T13:56:30.127Z,14.20
2018-05-10T13:58:59.674Z,14.10
2018-05-10T14:01:28.443Z,14.20
2018-05-10T14:03:56.451Z,14.10
2018-05-10T14:06:25.211Z,14.20
2018-05-10T14:08:53.248Z,14.20
2018-05-10T14:11:22.802Z,14.20
2018-05-10T14:13:50.801Z,14.10
2018-05-10T14:16:18.810Z,14.20
2018-05-10T14:18:46.804Z,14.20
2018-05-10T14:21:16.407Z,14.20
2018-05-10T14:23:44.386Z,14.20
2018-05-10T14:26:12.403Z,14.30
2018-05-10T14:28:40.399Z,14.30
2018-05-10T14:31:08.401Z,14.20
2018-05-10T14:33:36.403Z,14.20
2018-05-10T14:36:04.420Z,14.20
2018-05-10T14:38:34.000Z,14.40
2018-05-10T14:41:02.013Z,14.30
2018-05-10T14:43:30.014Z,14.40
2018-05-10T14:45:58.779Z,14.40
2018-05-10T14:48:26.808Z,14.30
2018-05-10T14:50:54.799Z,14.50
2018-05-10T14:53:22.812Z,14.50
2018-05-10T14:55:50.815Z,14.60
2018-05-10T14:58:18.811Z,14.70
2018-05-10T15:00:46.832Z,14.70
2018-05-10T15:03:14.826Z,14.90
2018-05-10T15:05:42.835Z,14.90
2018-05-10T15:08:10.847Z,15.00
2018-05-10T15:10:40.620Z,15.10
2018-05-10T15:13:08.645Z,15.00
2018-05-10T15:15:38.447Z,15.00
2018-05-10T15:18:06.390Z,15.00
2018-05-10T15:20:34.395Z,15.10
2018-05-10T15:23:02.512Z,15.10
2018-05-10T15:25:30.828Z,15.10
2018-05-10T15:27:59.599Z,15.10
2018-05-10T15:30:27.607Z,15.00
2018-05-10T15:32:56.388Z,15.00
2018-05-10T15:35:24.383Z,15.00
2018-05-10T15:37:53.171Z,15.10
2018-05-10T15:40:22.687Z,15.10
2018-05-10T15:42:50.691Z,15.10
2018-05-10T15:45:19.468Z,15.10
2018-05-10T15:47:47.453Z,15.00
2018-05-10T15:50:15.487Z,15.00
2018-05-10T15:52:43.487Z,15.00
2018-05-10T15:55:11.496Z,15.00
2018-05-10T15:57:40.484Z,15.00
2018-05-10T16:00:08.475Z,15.10
2018-05-10T16:02:36.500Z,15.20
2018-05-10T16:05:05.293Z,15.30
2018-05-10T16:07:34.067Z,15.30
2018-05-10T16:10:02.084Z,15.20
2018-05-10T16:12:31.671Z,15.40
2018-05-10T16:14:59.655Z,15.40
2018-05-10T16:17:27.660Z,15.60
2018-05-10T16:19:55.662Z,15.70
2018-05-10T16:22:23.671Z,15.90
2018-05-10T16:24:51.672Z,15.90
2018-05-10T16:27:20.691Z,16.00
2018-05-10T16:29:48.706Z,16.00
2018-05-10T16:32:17.491Z,15.90
2018-05-10T16:34:47.005Z,15.70
2018-05-10T16:37:15.790Z,15.70
2018-05-10T16:39:43.803Z,15.70
2018-05-10T16:42:11.815Z,15.60
2018-05-10T16:44:39.821Z,15.60
2018-05-10T16:47:07.833Z,15.40
2018-05-10T16:49:35.847Z,15.30
2018-05-10T16:52:04.609Z,15.30
2018-05-10T16:54:32.603Z,15.30
2018-05-10T16:57:00.622Z,15.30
2018-05-10T16:59:29.579Z,15.30
2018-05-10T17:01:57.578Z,15.30
2018-05-10T17:04:25.600Z,15.20
2018-05-10T17:06:54.355Z,15.30
2018-05-10T17:09:22.355Z,15.20
2018-05-10T17:11:51.135Z,15.20
2018-05-10T17:14:19.130Z,15.20
2018-05-10T17:16:47.159Z,15.30
2018-05-10T17:19:15.162Z,15.40
2018-05-10T17:21:43.163Z,15.30
2018-05-10T17:24:11.169Z,15.30
2018-05-10T17:26:39.167Z,15.20
2018-05-10T17:29:07.950Z,15.10
2018-05-10T17:31:35.952Z,15.10
2018-05-10T17:34:04.763Z,15.10
2018-05-10T17:36:33.654Z,15.20
2018-05-10T17:39:02.443Z,15.20
2018-05-10T17:41:31.231Z,15.30
2018-05-10T17:43:59.227Z,15.20
2018-05-10T17:46:28.005Z,15.20
2018-05-10T17:48:56.014Z,15.20
2018-05-10T17:51:24.995Z,15.30
2018-05-10T17:53:53.015Z,15.20
2018-05-10T17:56:21.831Z,15.20
2018-05-10T17:58:50.180Z,15.20
2018-05-10T18:01:18.175Z,15.20
2018-05-10T18:03:46.195Z,15.10
2018-05-10T18:06:14.199Z,15.00
2018-05-10T18:08:42.210Z,14.90
2018-05-10T18:11:10.219Z,14.90
2018-05-10T18:13:39.014Z,14.90
2018-05-10T18:16:07.071Z,14.90
2018-05-10T18:18:36.599Z,14.80
2018-05-10T18:21:04.605Z,14.80
2018-05-10T18:23:33.440Z,14.70
2018-05-10T18:26:02.211Z,14.70
2018-05-10T18:28:30.994Z,14.70
2018-05-10T18:30:59.017Z,14.70
2018-05-10T18:33:27.072Z,14.60
2018-05-10T18:35:55.162Z,14.70
2018-05-10T18:38:23.943Z,14.70
2018-05-10T18:40:51.987Z,14.60
2018-05-10T18:43:19.967Z,14.70
2018-05-10T18:45:47.994Z,14.60
2018-05-10T18:48:15.993Z,14.70
2018-05-10T18:50:44.774Z,14.60
2018-05-10T18:53:12.797Z,14.60
2018-05-10T18:55:41.034Z,14.60
2018-05-10T18:58:09.036Z,14.60
2018-05-10T19:00:37.111Z,14.60
2018-05-10T19:03:05.156Z,14.50
2018-05-10T19:05:33.216Z,14.50
2018-05-10T19:08:01.229Z,14.50
2018-05-10T19:10:29.253Z,14.50
2018-05-10T19:12:57.258Z,14.50
2018-05-10T19:15:25.377Z,14.50
2018-05-10T19:17:53.378Z,14.50
2018-05-10T19:20:21.744Z,14.50
2018-05-10T19:22:50.766Z,14.60
2018-05-10T19:25:18.987Z,14.60
2018-05-10T19:27:47.874Z,14.50
2018-05-10T19:30:16.082Z,14.50
2018-05-10T19:32:44.099Z,14.50
2018-05-10T19:35:12.095Z,14.50
2018-05-10T19:37:40.118Z,14.60
2018-05-10T19:40:09.719Z,14.50
2018-05-10T19:42:37.731Z,14.50
2018-05-10T19:45:05.757Z,14.60
2018-05-10T19:47:33.803Z,14.60
2018-05-10T19:50:01.839Z,14.60
2018-05-10T19:52:30.010Z,14.50
2018-05-10T19:54:58.051Z,14.50
2018-05-10T19:57:26.066Z,14.40
2018-05-10T19:59:54.098Z,14.40
2018-05-10T20:02:22.100Z,14.40
2018-05-10T20:04:50.162Z,14.20
2018-05-10T20:07:18.168Z,14.00
2018-05-10T20:09:47.699Z,13.90
2018-05-10T20:12:16.497Z,13.80
2018-05-10T20:14:44.482Z,13.70
2018-05-10T20:17:13.283Z,13.70
2018-05-10T20:19:42.061Z,13.60
2018-05-10T20:22:10.060Z,13.60
2018-05-10T20:24:38.831Z,13.40
2018-05-10T20:27:08.511Z,13.40
2018-05-10T20:29:36.477Z,13.30
2018-05-10T20:32:05.357Z,13.20
2018-05-10T20:34:33.486Z,13.20
2018-05-10T20:37:02.667Z,13.20
2018-05-10T20:39:31.551Z,13.10
2018-05-10T20:42:00.007Z,13.10
2018-05-10T20:44:28.167Z,13.10
2018-05-10T20:46:56.239Z,13.10
2018-05-10T20:49:25.343Z,13.00
2018-05-10T20:51:53.421Z,13.00
2018-05-10T20:54:22.459Z,13.00
2018-05-10T20:56:50.467Z,13.00
2018-05-10T20:59:18.474Z,13.00
2018-05-10T21:01:46.463Z,13.00
2018-05-10T21:04:14.550Z,13.00
2018-05-10T21:06:43.268Z,13.10
2018-05-10T21:09:11.428Z,13.00
2018-05-10T21:11:39.443Z,13.10
2018-05-10T21:14:08.219Z,13.20
2018-05-10T21:16:36.233Z,13.10
2018-05-10T21:19:05.007Z,13.00
2018-05-10T21:21:33.021Z,13.00
2018-05-10T21:24:01.041Z,13.00
2018-05-10T21:26:29.038Z,13.00
2018-05-10T21:28:57.174Z,13.10
2018-05-10T21:31:25.200Z,13.10
2018-05-10T21:33:53.258Z,13.10
2018-05-10T21:36:22.005Z,13.00
2018-05-10T21:38:50.023Z,12.90
2018-05-10T21:41:18.039Z,13.00
2018-05-10T21:43:46.388Z,12.90
2018-05-10T21:46:15.156Z,12.80
2018-05-10T21:48:43.174Z,12.80
2018-05-10T21:51:11.939Z,12.80
2018-05-10T21:53:39.955Z,12.80
2018-05-10T21:56:08.736Z,12.80
2018-05-10T21:58:37.581Z,12.80
2018-05-10T22:01:05.589Z,12.80
2018-05-10T22:03:33.603Z,12.70
2018-05-10T22:06:01.621Z,12.70
2018-05-10T22:08:29.642Z,12.80
2018-05-10T22:10:57.637Z,12.80
2018-05-10T22:13:25.648Z,12.80
2018-05-10T22:15:54.418Z,12.60
2018-05-10T22:18:22.440Z,12.60
2018-05-10T22:20:51.217Z,12.70
2018-05-10T22:23:19.207Z,12.60
2018-05-10T22:25:47.998Z,12.60
2018-05-10T22:28:16.005Z,12.60
2018-05-10T22:30:44.771Z,12.70
2018-05-10T22:33:12.785Z,12.70
2018-05-10T22:35:41.547Z,12.70
2018-05-10T22:38:09.566Z,12.70
2018-05-10T22:40:38.334Z,12.60
2018-05-10T22:43:06.360Z,12.50
2018-05-10T22:45:35.140Z,12.50
2018-05-10T22:48:03.202Z,12.50
2018-05-10T22:50:31.923Z,12.40
2018-05-10T22:52:59.918Z,12.40
2018-05-10T22:55:27.934Z,12.40
2018-05-10T22:57:55.951Z,12.50
2018-05-10T23:00:23.951Z,12.50
2018-05-10T23:02:52.050Z,12.50
2018-05-10T23:05:20.825Z,12.50
2018-05-10T23:07:48.843Z,12.50
2018-05-10T23:10:17.626Z,12.50
2018-05-10T23:12:46.403Z,12.50
2018-05-10T23:15:14.412Z,12.50
2018-05-10T23:17:42.409Z,12.50
2018-05-10T23:20:11.186Z,12.50
2018-05-10T23:22:39.199Z,12.40
2018-05-10T23:25:07.199Z,12.60
2018-05-10T23:27:35.242Z,12.50
2018-05-10T23:30:03.268Z,12.60
2018-05-10T23:32:31.266Z,12.50
2018-05-10T23:34:59.278Z,12.60
2018-05-10T23:37:27.275Z,12.60
2018-05-10T23:39:56.054Z,12.70
2018-05-10T23:42:24.058Z,12.60
2018-05-10T23:44:52.847Z,12.70
2018-05-10T23:47:20.963Z,12.70
2018-05-10T23:49:48.963Z,12.70
2018-05-10T23:52:16.975Z,12.70
2018-05-10T23:54:44.975Z,12.70
2018-05-10T23:57:13.003Z,12.70
2018-05-10T23:59:41.018Z,12.60
